KBIF

Biggs AAF (Fort Bliss) Airport

Fort Bliss/El Paso/, Texas, USA
METAR KBIF 100558Z AUTO 00000KT 10SM CLR 04/02 A3035 RMK AO2 SLP263 T00440022 10119 20043 51008 $
Observed Flight Rules
Dec-10 @ 05:58 UTC (29 minutes ago) Visual Flight Rules
Visibility Clouds
10 miles
  • Clear skies
Temperatures Readings
Current 4°C / 39°F
Dewpoint 2°C / 36°F
Humidity 87%
Altimeter 30.35" Hg
Pressure 1026.3 hPa
Elevation 1203
METAR KBIF 100558Z AUTO 00000KT 10SM CLR 04/02 A3035 RMK AO2 SLP263 T00440022 10119 20043 51008 $
Observed Flight Rules
Dec-10 @ 05:58 UTC
(29 minutes ago)
VFR
Clouds
  • Clear skies
Temperature Dewpoint
4°C / 39°F 2°C / 36°F
Humidity Altimeter Pressure
87% 30.35" Hg 1026.3 hPa